Time;durP1;ratioP1;P1;durP2;ratioP2;P2;SDS_P1;SDS_P2;PMS_P1;PMS_P2;Temp;Humidity;BMP_temperature;BMP_pressure;BME280_temperature;BME280_humidity;BME280_pressure;Samples;Min_cycle;Max_cycle;Signal;HPM_P1;HPM_P2
2022/04/18 00:00:44;;;;;;;7.90;6.20;;;204.80;2252.80;;;;;;4868409;29;20106;-78
2022/04/18 00:03:10;;;;;;;7.07;5.30;;;180.10;2252.80;;;;;;4845007;29;20359;-76
2022/04/18 00:05:36;;;;;;;8.23;5.13;;;180.10;2252.80;;;;;;4845359;29;20471;-76
2022/04/18 00:08:03;;;;;;;10.38;6.72;;;180.00;2252.80;;;;;;4845075;29;20026;-77
2022/04/18 00:10:29;;;;;;;8.48;5.85;;;180.10;2252.80;;;;;;4843487;29;20105;-77
2022/04/18 00:12:55;;;;;;;7.45;4.68;;;179.90;2252.80;;;;;;4843644;29;20479;-77
2022/04/18 00:15:21;;;;;;;6.50;4.32;;;179.90;2252.80;;;;;;4843589;29;20022;-76
2022/04/18 00:17:46;;;;;;;9.00;5.10;;;179.80;2252.80;;;;;;4843249;29;20029;-76
2022/04/18 00:20:12;;;;;;;9.13;5.72;;;179.70;2252.80;;;;;;4843595;29;20475;-76
2022/04/18 00:22:38;;;;;;;11.85;6.47;;;179.70;2252.80;;;;;;4843491;29;20018;-77
2022/04/18 00:25:04;;;;;;;6.15;4.05;;;179.60;2252.80;;;;;;4843257;29;20383;-76
2022/04/18 00:27:30;;;;;;;9.32;5.57;;;179.60;2252.80;;;;;;4843294;29;20070;-78
2022/04/18 00:29:55;;;;;;;11.73;6.40;;;179.60;2252.80;;;;;;4843348;29;20512;-77
2022/04/18 00:32:21;;;;;;;17.50;8.57;;;179.70;2252.80;;;;;;4844368;29;20128;-76
2022/04/18 00:34:47;;;;;;;9.82;5.03;;;179.70;2252.80;;;;;;4843125;29;20026;-77
2022/04/18 00:37:13;;;;;;;4.90;3.28;;;179.70;2252.80;;;;;;4843323;29;20391;-79
2022/04/18 00:39:39;;;;;;;7.03;4.72;;;179.70;2252.80;;;;;;4843061;29;20025;-76
2022/04/18 00:42:05;;;;;;;6.32;3.75;;;179.70;2252.80;;;;;;4843211;29;20026;-76
2022/04/18 00:44:30;;;;;;;5.60;3.13;;;179.70;2252.80;;;;;;4844678;29;20026;-75
2022/04/18 00:46:56;;;;;;;6.47;2.85;;;179.70;2252.80;;;;;;4844064;29;20367;-78
2022/04/18 00:49:22;;;;;;;6.05;3.55;;;179.70;2252.80;;;;;;4843303;29;20053;-76
2022/04/18 00:51:48;;;;;;;4.75;2.85;;;179.60;2252.80;;;;;;4842790;29;20057;-76
2022/04/18 00:54:14;;;;;;;5.90;2.88;;;179.70;2252.80;;;;;;4843065;29;20116;-77
2022/04/18 00:56:40;;;;;;;10.05;4.97;;;179.70;2252.80;;;;;;4843034;29;20118;-76
2022/04/18 00:59:08;;;;;;;9.65;5.43;;;179.70;2252.80;;;;;;4842685;29;20082;-79
2022/04/18 01:01:33;;;;;;;10.38;6.82;;;179.80;2252.80;;;;;;4843828;29;20026;-77
2022/04/18 01:04:00;;;;;;;10.70;6.78;;;179.90;2252.80;;;;;;4842853;29;20022;-78
2022/04/18 01:06:25;;;;;;;12.10;8.13;;;179.80;2252.80;;;;;;4842398;29;20086;-77
2022/04/18 01:08:52;;;;;;;11.00;7.68;;;179.80;2252.80;;;;;;4843582;29;20030;-77
2022/04/18 01:11:18;;;;;;;7.75;4.68;;;179.80;2252.80;;;;;;4843883;29;20022;-77
2022/04/18 01:13:45;;;;;;;7.80;4.72;;;179.90;2252.80;;;;;;4842380;29;20034;-77
2022/04/18 01:16:12;;;;;;;7.40;4.00;;;179.80;2252.80;;;;;;4842655;29;20036;-76
2022/04/18 01:18:38;;;;;;;4.85;3.10;;;179.80;2252.80;;;;;;4842924;29;20041;-77
2022/04/18 01:21:09;;;;;;;4.43;2.85;;;179.90;2252.80;;;;;;4842382;29;20030;-78
2022/04/18 01:23:35;;;;;;;4.53;2.72;;;179.70;2252.80;;;;;;4842616;29;20033;-78
2022/04/18 01:29:03;;;;;;;8.27;2.72;;;179.70;2252.80;;;;;;4843429;29;20419;-78
2022/04/18 01:31:31;;;;;;;9.57;5.75;;;179.80;2252.80;;;;;;4842446;29;20030;-78
2022/04/18 01:33:58;;;;;;;6.43;4.13;;;179.70;2252.80;;;;;;4842090;29;20058;-78
2022/04/18 01:36:28;;;;;;;5.93;3.38;;;179.70;2252.80;;;;;;4842070;29;20056;-76
2022/04/18 01:38:54;;;;;;;5.00;2.58;;;179.60;2252.80;;;;;;4841770;29;20120;-77
2022/04/18 01:41:20;;;;;;;4.20;2.30;;;179.60;2252.80;;;;;;4841889;29;20069;-78
2022/04/18 01:43:47;;;;;;;4.70;2.60;;;179.60;2252.80;;;;;;4842202;29;20033;-77
2022/04/18 01:46:15;;;;;;;7.32;3.83;;;179.80;2252.80;;;;;;4842087;29;20022;-77
2022/04/18 01:48:41;;;;;;;5.85;5.18;;;179.40;2252.80;;;;;;4841872;29;20026;-77
2022/04/18 01:51:06;;;;;;;6.20;4.78;;;179.70;2252.80;;;;;;4843244;29;20125;-79
2022/04/18 01:53:32;;;;;;;5.05;3.30;;;179.70;2252.80;;;;;;4843060;29;20105;-76
2022/04/18 01:55:58;;;;;;;4.05;2.50;;;179.70;2252.80;;;;;;4841723;29;20476;-78
2022/04/18 01:58:24;;;;;;;3.80;2.25;;;179.60;2252.80;;;;;;4842022;29;20030;-77
2022/04/18 02:00:50;;;;;;;4.53;2.50;;;179.70;2252.80;;;;;;4842019;29;20030;-77
2022/04/18 02:03:16;;;;;;;3.45;2.00;;;179.70;2252.80;;;;;;4841718;29;20048;-77
2022/04/18 02:05:43;;;;;;;3.28;1.77;;;179.60;2252.80;;;;;;4841796;29;20463;-79
2022/04/18 02:08:09;;;;;;;5.07;2.20;;;179.70;2252.80;;;;;;4842001;29;20026;-75
2022/04/18 02:10:35;;;;;;;4.05;2.20;;;179.70;2252.80;;;;;;4841479;29;20065;-78
2022/04/18 02:13:01;;;;;;;4.85;2.17;;;179.70;2252.80;;;;;;4843073;29;20459;-77
2022/04/18 02:15:27;;;;;;;3.92;2.13;;;179.70;2252.80;;;;;;4841757;29;20029;-77
2022/04/18 02:17:52;;;;;;;3.88;2.33;;;179.70;2252.80;;;;;;4841595;29;20057;-76
2022/04/18 02:20:18;;;;;;;3.83;2.25;;;179.50;2252.80;;;;;;4841985;29;20034;-78
2022/04/18 02:22:44;;;;;;;5.25;2.40;;;179.70;2252.80;;;;;;4841441;29;20022;-78
2022/04/18 02:25:10;;;;;;;5.00;2.47;;;179.70;2252.80;;;;;;4842702;29;20033;-76
2022/04/18 02:27:36;;;;;;;4.30;2.63;;;179.70;2252.80;;;;;;4841725;29;20032;-77
2022/04/18 02:30:03;;;;;;;3.92;2.20;;;179.60;2252.80;;;;;;4842494;29;20408;-76
2022/04/18 02:35:13;;;;;;;4.85;2.80;;;179.70;2252.80;;;;;;4842869;29;20084;-76
2022/04/18 02:37:39;;;;;;;4.72;3.20;;;179.60;2252.80;;;;;;4842367;29;20032;-76
2022/04/18 02:40:06;;;;;;;4.88;2.63;;;179.50;2252.80;;;;;;4842953;29;20371;-77
2022/04/18 02:42:32;;;;;;;3.65;2.15;;;179.50;2252.80;;;;;;4841482;29;20486;-78
2022/04/18 02:44:57;;;;;;;4.32;2.17;;;179.60;2252.80;;;;;;4841236;29;20026;-76
2022/04/18 02:47:23;;;;;;;4.82;2.50;;;179.70;2252.80;;;;;;4841534;29;20068;-78
2022/04/18 02:49:52;;;;;;;4.68;2.22;;;179.70;2252.80;;;;;;4842219;29;20041;-78
2022/04/18 02:52:18;;;;;;;5.82;4.60;;;179.60;2252.80;;;;;;4846158;29;20030;-76
2022/04/18 02:54:44;;;;;;;5.13;4.32;;;179.50;2252.80;;;;;;4845184;29;20042;-79
2022/04/18 02:57:13;;;;;;;6.07;4.25;;;179.50;2252.80;;;;;;4845049;29;20113;-79
2022/04/18 02:59:39;;;;;;;4.85;2.60;;;179.70;2252.80;;;;;;4845972;29;20456;-78
2022/04/18 03:02:06;;;;;;;4.03;2.20;;;180.00;2252.80;;;;;;4845038;29;20355;-77
2022/04/18 03:04:32;;;;;;;4.22;2.00;;;179.60;2252.80;;;;;;4844944;29;20022;-79
2022/04/18 03:06:58;;;;;;;5.07;2.55;;;179.70;2252.80;;;;;;4844582;29;20438;-76
2022/04/18 03:09:23;;;;;;;5.15;2.78;;;179.60;2252.80;;;;;;4844665;29;20042;-77
2022/04/18 03:11:49;;;;;;;4.03;2.35;;;179.60;2252.80;;;;;;4845741;29;20029;-76
2022/04/18 03:14:15;;;;;;;4.50;2.72;;;179.50;2252.80;;;;;;4844871;29;20026;-77
2022/04/18 03:16:40;;;;;;;4.85;2.60;;;179.60;2252.80;;;;;;4844746;29;20109;-78
2022/04/18 03:19:06;;;;;;;5.72;3.67;;;179.70;2252.80;;;;;;4844333;29;20030;-77
2022/04/18 03:21:32;;;;;;;5.82;3.38;;;179.70;2252.80;;;;;;4845704;29;20021;-77
2022/04/18 03:23:58;;;;;;;5.65;3.33;;;179.60;2252.80;;;;;;4844739;29;20037;-78
2022/04/18 03:26:24;;;;;;;5.43;3.13;;;179.70;2252.80;;;;;;4844258;29;20033;-77
2022/04/18 03:28:50;;;;;;;5.38;2.85;;;179.70;2252.80;;;;;;4844465;29;20037;-78
2022/04/18 03:31:16;;;;;;;6.40;3.00;;;179.70;2252.80;;;;;;4845693;29;20106;-77
2022/04/18 03:33:42;;;;;;;5.57;3.17;;;179.60;2252.80;;;;;;4844114;29;20400;-76
2022/04/18 03:41:36;;;;;;;5.57;3.05;;;179.90;2252.80;;;;;;4845960;29;20547;-77
2022/04/18 03:44:02;;;;;;;7.57;3.70;;;180.00;2252.80;;;;;;4844435;29;20112;-76
2022/04/18 03:46:28;;;;;;;8.50;5.32;;;179.80;2252.80;;;;;;4844183;29;20117;-80
2022/04/18 03:48:53;;;;;;;10.75;5.53;;;180.00;2252.80;;;;;;4844021;29;20359;-76
2022/04/18 03:51:19;;;;;;;5.35;3.67;;;180.00;2252.80;;;;;;4844118;29;20026;-77
2022/04/18 03:53:45;;;;;;;5.40;2.92;;;179.90;2252.80;;;;;;4843794;29;20448;-77
2022/04/18 03:56:11;;;;;;;7.18;3.92;;;179.80;2252.80;;;;;;4844135;29;20117;-77
2022/04/18 03:58:36;;;;;;;7.40;4.10;;;179.80;2252.80;;;;;;4843964;29;20117;-77
2022/04/18 04:01:02;;;;;;;6.85;4.75;;;179.80;2252.80;;;;;;4843258;29;20082;-76
2022/04/18 04:03:31;;;;;;;8.18;5.38;;;179.80;2252.80;;;;;;4843985;29;20375;-79
2022/04/18 04:17:22;;;;;;;13.55;8.10;;;180.00;2252.80;;;;;;4786699;30;20083;-79
2022/04/18 04:30:14;;;;;;;16.10;11.23;;;179.70;2252.80;;;;;;4787838;30;20284;-77
2022/04/18 04:32:40;;;;;;;10.73;7.55;;;179.80;2252.80;;;;;;4792276;29;20383;-78
2022/04/18 04:35:06;;;;;;;10.63;6.57;;;179.80;2252.80;;;;;;4843178;29;20053;-77
2022/04/18 04:37:31;;;;;;;9.23;6.30;;;179.80;2252.80;;;;;;4843119;29;20026;-77
2022/04/18 04:39:57;;;;;;;10.63;7.15;;;179.80;2252.80;;;;;;4843206;29;20454;-80
2022/04/18 04:42:23;;;;;;;10.13;6.53;;;180.00;2252.80;;;;;;4843514;29;20077;-77
2022/04/18 04:44:49;;;;;;;8.38;5.57;;;179.90;2252.80;;;;;;4842931;29;20026;-77
2022/04/18 04:47:15;;;;;;;12.55;9.20;;;180.00;2252.80;;;;;;4843029;29;20121;-78
2022/04/18 04:49:43;;;;;;;26.48;16.50;;;180.10;2252.80;;;;;;4842659;29;20095;-79
2022/04/18 04:52:41;;;;;;;17.40;11.90;;;180.10;2252.80;;;;;;4842957;29;20091;-79
2022/04/18 04:55:20;;;;;;;16.95;9.63;;;180.10;2252.80;;;;;;4842960;29;20079;-78
2022/04/18 04:57:46;;;;;;;10.00;6.57;;;180.10;2252.80;;;;;;4842253;29;20073;-77
2022/04/18 05:00:19;;;;;;;30.30;18.48;;;180.10;2252.80;;;;;;4842625;29;20030;-77
2022/04/18 05:02:46;;;;;;;17.13;9.52;;;180.10;2252.80;;;;;;4842895;29;20481;-77
2022/04/18 05:05:12;;;;;;;14.38;7.13;;;180.00;2252.80;;;;;;4842537;29;20415;-78
2022/04/18 05:07:38;;;;;;;9.13;5.78;;;180.00;2252.80;;;;;;4842669;29;20025;-78
2022/04/18 05:10:07;;;;;;;7.85;4.82;;;179.90;2252.80;;;;;;4843822;29;20033;-78
2022/04/18 05:12:36;;;;;;;8.98;5.25;;;179.90;2252.80;;;;;;4842602;29;20033;-78
2022/04/18 05:15:06;;;;;;;85.53;63.47;;;179.90;2252.80;;;;;;4842536;29;20375;-77
2022/04/18 05:17:32;;;;;;;249.13;144.25;;;179.90;2252.80;;;;;;4842529;29;20137;-77
2022/04/18 05:19:58;;;;;;;112.72;65.22;;;179.90;2252.80;;;;;;4842196;29;20034;-77
2022/04/18 05:22:24;;;;;;;21.85;15.18;;;179.90;2252.80;;;;;;4842568;29;20062;-76
2022/04/18 05:24:51;;;;;;;50.88;42.00;;;179.80;2252.80;;;;;;4843530;29;20045;-77
2022/04/18 05:27:17;;;;;;;19.27;14.25;;;179.90;2252.80;;;;;;4842413;29;20028;-79
2022/04/18 05:29:44;;;;;;;15.90;9.95;;;179.90;2252.80;;;;;;4842336;29;20064;-79
2022/04/18 05:32:10;;;;;;;30.95;24.15;;;180.00;2252.80;;;;;;4843067;29;20028;-77
2022/04/18 05:34:45;;;;;;;16.80;13.52;;;179.90;2252.80;;;;;;4842359;29;20091;-77
2022/04/18 05:43:37;;;;;;;15.00;12.25;;;180.10;2252.80;;;;;;4843281;29;20053;-77
2022/04/18 05:46:15;;;;;;;13.65;8.60;;;204.80;2252.80;;;;;;4842002;29;20359;-77
2022/04/18 05:48:44;;;;;;;18.75;12.40;;;179.90;2252.80;;;;;;4841514;29;20132;-77
2022/04/18 05:51:54;;;;;;;26.35;17.98;;;180.10;2252.80;;;;;;4841979;29;20034;-77
2022/04/18 05:54:37;;;;;;;11.45;8.65;;;180.10;2252.80;;;;;;4840430;29;20038;-78
2022/04/18 05:57:11;;;;;;;10.57;8.77;;;180.00;2252.80;;;;;;4842016;29;20097;-77
2022/04/18 06:07:01;;;;;;;8.20;5.65;;;180.10;2252.80;;;;;;4821476;29;20058;-76
2022/04/18 06:09:54;;;;;;;5.78;4.03;;;204.80;2252.80;;;;;;4840695;29;20038;-77
2022/04/18 06:13:11;;;;;;;9.55;5.93;;;204.80;2252.80;;;;;;4841429;29;20533;-77
2022/04/18 06:15:52;;;;;;;;;;;;;;;;;;;;;
2022/04/18 06:22:16;;;;;;;10.50;6.03;;;204.90;2252.80;;;;;;4768943;30;20114;-77
2022/04/18 06:25:42;;;;;;;6.75;4.47;;;204.90;2252.80;;;;;;4790843;29;20279;-77
2022/04/18 06:31:46;;;;;;;;;;;;;;;;;;;;;
2022/04/18 06:34:52;;;;;;;20.20;14.65;;;205.10;2252.80;;;;;;4844659;29;20374;-79
2022/04/18 06:37:34;;;;;;;15.00;10.07;;;205.10;2252.80;;;;;;4819450;29;20151;-81
2022/04/18 06:40:29;;;;;;;9.18;6.45;;;205.00;2252.80;;;;;;4841827;29;20417;-80
2022/04/18 06:47:08;;;;;;;43.22;26.90;;;205.40;2252.80;;;;;;4827834;29;20058;-79
2022/04/18 06:49:48;;;;;;;;;;;;;;;;;;;;;
2022/04/18 06:53:12;;;;;;;16.80;12.52;;;205.50;2252.80;;;;;;4827183;29;20713;-80
2022/04/18 06:56:58;;;;;;;20.55;17.25;;;205.40;2252.80;;;;;;4827146;29;20043;-77
2022/04/18 06:58:25;;;;;;;18.08;12.30;;;205.30;2252.80;;;;;;4827371;29;20030;-78
2022/04/18 07:01:06;;;;;;;15.13;11.68;;;205.40;2252.80;;;;;;4842001;29;20026;-78
2022/04/18 07:03:40;;;;;;;20.52;15.90;;;205.30;2252.80;;;;;;4843867;29;20058;-78
2022/04/18 07:06:11;;;;;;;18.95;15.75;;;205.50;2252.80;;;;;;4866198;29;20014;-80
2022/04/18 07:08:46;;;;;;;16.88;13.60;;;205.60;2252.80;;;;;;4842889;29;20018;-79
2022/04/18 07:11:34;;;;;;;12.77;11.45;;;205.70;2252.80;;;;;;4842360;29;20031;-76
2022/04/18 07:14:05;;;;;;;12.20;10.60;;;205.70;2252.80;;;;;;4841615;29;20023;-76
2022/04/18 07:20:29;;;;;;;15.32;11.15;;;230.40;2252.80;;;;;;4827229;29;20114;-80
2022/04/18 07:23:40;;;;;;;18.50;11.63;;;230.50;2252.80;;;;;;4825274;29;20049;-80
2022/04/18 07:26:24;;;;;;;9.00;6.85;;;230.70;2252.80;;;;;;4841250;29;20379;-79
2022/04/18 07:28:50;;;;;;;13.20;8.20;;;230.80;2252.80;;;;;;4840890;29;20031;-78
2022/04/18 07:31:16;;;;;;;9.82;8.43;;;230.90;2252.80;;;;;;4840945;29;20038;-77
2022/04/18 07:33:42;;;;;;;10.45;6.95;;;230.90;2252.80;;;;;;4840940;29;20383;-78
2022/04/18 07:36:07;;;;;;;10.52;7.63;;;230.90;2252.80;;;;;;4840283;29;20093;-78
2022/04/18 07:38:50;;;;;;;12.93;10.00;;;230.70;2252.80;;;;;;4840889;29;20451;-78
2022/04/18 07:41:26;;;;;;;13.38;8.75;;;230.90;2252.80;;;;;;4841263;29;20030;-78
2022/04/18 07:43:52;;;;;;;33.72;17.85;;;231.00;2252.80;;;;;;4841389;29;20031;-77
2022/04/18 07:46:19;;;;;;;25.98;18.77;;;230.80;2252.80;;;;;;4840836;29;20460;-78
2022/04/18 07:48:47;;;;;;;16.42;10.10;;;231.10;2252.80;;;;;;4841037;29;20031;-77
2022/04/18 07:53:59;;;;;;;8.63;6.90;;;231.00;2252.80;;;;;;4826667;29;20118;-78
2022/04/18 07:56:25;;;;;;;10.73;8.60;;;231.00;2252.80;;;;;;4840857;29;20037;-78
2022/04/18 07:58:55;;;;;;;8.13;6.57;;;231.10;2252.80;;;;;;4826212;29;20403;-77
2022/04/18 08:01:24;;;;;;;16.98;13.90;;;231.20;2252.80;;;;;;4840679;29;20027;-77
2022/04/18 08:03:53;;;;;;;10.27;7.75;;;256.50;2252.80;;;;;;4840517;29;20058;-77
2022/04/18 08:06:20;;;;;;;8.32;6.20;;;231.30;2252.80;;;;;;4826401;29;20098;-77
2022/04/18 08:08:46;;;;;;;9.68;8.25;;;231.10;2252.80;;;;;;4826694;29;20109;-77
2022/04/18 08:11:14;;;;;;;15.23;13.57;;;231.20;2252.80;;;;;;4840749;29;20034;-78
2022/04/18 08:13:47;;;;;;;9.90;8.90;;;231.30;2252.80;;;;;;4840115;29;20036;-78
2022/04/18 08:16:13;;;;;;;;;;;256.00;2252.80;;;;;;4826881;29;20026;-78
2022/04/18 08:18:43;;;;;;;7.55;6.10;;;231.30;2252.80;;;;;;4840570;29;19953;-77
2022/04/18 08:21:12;;;;;;;13.15;10.15;;;231.10;2252.80;;;;;;4840201;29;20030;-77
2022/04/18 08:23:38;;;;;;;6.40;4.65;;;231.20;2252.80;;;;;;4840465;29;20026;-78
2022/04/18 08:26:09;;;;;;;10.27;7.93;;;231.20;2252.80;;;;;;4840452;29;20536;-77
2022/04/18 08:28:35;;;;;;;24.65;15.60;;;231.20;2252.80;;;;;;4841711;29;20030;-78
2022/04/18 08:31:01;;;;;;;10.68;7.43;;;231.20;2252.80;;;;;;4840210;29;20050;-79
2022/04/18 08:33:29;;;;;;;12.13;6.82;;;231.30;2252.80;;;;;;4826338;29;20440;-79
2022/04/18 08:37:04;;;;;;;12.65;6.93;;;256.80;2252.80;;;;;;4839662;29;20050;-77
2022/04/18 08:42:57;;;;;;;18.20;10.63;;;231.30;2252.80;;;;;;4805601;29;20033;-76
2022/04/18 08:46:07;;;;;;;19.60;11.18;;;256.10;2252.80;;;;;;4790552;29;20034;-80
2022/04/18 08:54:53;;;;;;;15.82;12.57;;;256.60;2252.80;;;;;;4766512;30;20078;-78
2022/04/18 08:57:53;;;;;;;12.55;8.18;;;256.50;2252.80;;;;;;4769564;30;20504;-79
2022/04/18 09:00:24;;;;;;;11.10;7.95;;;256.70;2252.80;;;;;;4754913;30;20527;-79
2022/04/18 09:02:50;;;;;;;7.05;4.60;;;256.90;2252.80;;;;;;4754499;30;20028;-79
2022/04/18 09:05:16;;;;;;;4.55;2.72;;;256.80;2252.80;;;;;;4803702;29;20049;-82
2022/04/18 09:07:46;;;;;;;5.72;3.67;;;256.70;2252.80;;;;;;4839934;29;20037;-79
2022/04/18 09:10:23;;;;;;;6.70;4.00;;;256.40;2252.80;;;;;;4839669;29;20039;-78
2022/04/18 09:12:50;;;;;;;11.85;6.82;;;256.70;2252.80;;;;;;4839940;29;20472;-80
2022/04/18 09:15:39;;;;;;;7.40;5.50;;;256.70;2252.80;;;;;;4839796;29;20026;-78
2022/04/18 09:18:11;;;;;;;9.80;6.95;;;256.70;2252.80;;;;;;4839599;29;20026;-79
2022/04/18 09:20:48;;;;;;;6.57;4.07;;;256.70;2252.80;;;;;;4839537;29;20121;-81
2022/04/18 09:23:28;;;;;;;6.53;4.00;;;256.60;2252.80;;;;;;4823813;29;20475;-81
2022/04/18 09:25:58;;;;;;;8.82;5.57;;;256.70;2252.80;;;;;;4839535;29;20038;-80
2022/04/18 09:28:35;;;;;;;5.78;3.95;;;256.70;2252.80;;;;;;4839488;29;20026;-80
2022/04/18 09:31:06;;;;;;;11.57;6.50;;;256.50;2252.80;;;;;;4839173;29;20034;-80
2022/04/18 09:33:42;;;;;;;5.93;3.88;;;256.70;2252.80;;;;;;4839598;29;20530;-81
2022/04/18 09:39:53;;;;;;;8.48;4.53;;;282.00;2278.40;;;;;;4908688;23;20177;-80
2022/04/18 09:42:21;;;;;;;8.63;4.80;;;282.20;2278.40;;;;;;4845325;29;20032;-79
2022/04/18 09:44:47;;;;;;;11.25;9.25;;;282.40;2278.40;;;;;;4844651;29;20025;-77
2022/04/18 09:47:17;;;;;;;9.40;6.38;;;282.50;2278.40;;;;;;4845344;29;20040;-78
2022/04/18 09:49:43;;;;;;;7.38;5.80;;;307.20;2304.00;;;;;;4845329;29;20030;-80
2022/04/18 09:52:16;;;;;;;11.82;6.47;;;307.30;2304.00;;;;;;4861808;29;20022;-76
2022/04/18 09:54:57;;;;;;;5.40;3.38;;;307.60;2304.00;;;;;;4862079;29;20037;-76
2022/04/18 09:57:25;;;;;;;6.75;5.18;;;307.70;2201.60;;;;;;4845122;29;20033;-76
2022/04/18 09:59:52;;;;;;;9.60;7.07;;;307.60;2252.80;;;;;;4844363;29;20029;-75
2022/04/18 10:02:19;;;;;;;7.82;5.72;;;307.70;2304.00;;;;;;4861982;29;20025;-78
2022/04/18 10:04:46;;;;;;;17.13;10.32;;;307.80;2278.40;;;;;;4844670;29;20032;-79
2022/04/18 10:07:25;;;;;;;14.18;10.48;;;307.70;2252.80;;;;;;4844806;29;20033;-80
2022/04/18 10:09:58;;;;;;;10.52;7.30;;;307.80;2201.60;;;;;;4844630;29;20423;-80
2022/04/18 10:13:02;;;;;;;9.38;7.40;;;307.80;2201.60;;;;;;4844430;29;20021;-79
2022/04/18 10:15:29;;;;;;;8.75;5.25;;;307.70;2227.20;;;;;;4814888;29;20026;-78
2022/04/18 10:17:59;;;;;;;10.40;7.63;;;307.80;2227.20;;;;;;4845236;29;20074;-79
2022/04/18 10:20:46;;;;;;;8.73;6.00;;;307.80;2201.60;;;;;;4845067;29;20025;-78
2022/04/18 10:23:47;;;;;;;11.32;8.07;;;307.80;2176.00;;;;;;4845087;29;20037;-81
2022/04/18 10:26:43;;;;;;;11.07;7.72;;;307.70;2150.40;;;;;;4845036;29;20438;-79
2022/04/18 10:29:20;;;;;;;9.15;6.43;;;307.70;2201.60;;;;;;4844856;29;20054;-81
2022/04/18 10:31:48;;;;;;;7.60;5.50;;;307.60;2201.60;;;;;;4845333;29;20026;-81
2022/04/18 10:34:14;;;;;;;10.02;8.13;;;307.30;2048.00;;;;;;4845925;29;20471;-79
2022/04/18 10:36:50;;;;;;;10.50;6.43;;;307.40;2124.80;;;;;;4869119;29;20104;-79
2022/04/18 10:39:20;;;;;;;10.55;8.40;;;307.30;2278.40;;;;;;4852946;29;20066;-78
2022/04/18 10:45:17;;;;;;;13.80;9.05;;;282.40;2278.40;;;;;;4860960;29;20052;-79
2022/04/18 10:48:07;;;;;;;10.40;8.20;;;282.20;2278.40;;;;;;4844238;29;20040;-78
2022/04/18 10:50:34;;;;;;;10.85;9.18;;;282.00;2278.40;;;;;;4844695;29;20466;-81
2022/04/18 10:53:24;;;;;;;9.27;7.45;;;282.00;2278.40;;;;;;4844697;29;20029;-79
2022/04/18 10:55:53;;;;;;;14.35;11.43;;;281.80;2278.40;;;;;;4844016;29;20022;-78
2022/04/18 10:58:26;;;;;;;15.48;11.23;;;281.70;2278.40;;;;;;4844598;29;20021;-77
2022/04/18 11:00:52;;;;;;;16.42;11.10;;;281.60;2278.40;;;;;;4844486;29;20120;-78
2022/04/18 11:03:57;;;;;;;20.27;16.70;;;281.60;2278.40;;;;;;4844137;29;20120;-79
2022/04/18 11:06:23;;;;;;;23.98;14.70;;;281.60;2278.40;;;;;;4824584;29;20041;-78
2022/04/18 11:09:01;;;;;;;11.35;8.23;;;281.70;2278.40;;;;;;4843914;29;20121;-78
2022/04/18 11:11:40;;;;;;;17.98;12.25;;;281.60;2278.40;;;;;;4845996;29;20347;-78
2022/04/18 11:14:19;;;;;;;27.83;15.93;;;281.70;2278.40;;;;;;4847890;29;20052;-78
2022/04/18 11:16:45;;;;;;;17.80;11.45;;;281.70;2278.40;;;;;;4847651;29;20025;-80
2022/04/18 11:19:14;;;;;;;12.25;10.45;;;281.80;2278.40;;;;;;4847988;29;20040;-79
2022/04/18 11:22:01;;;;;;;12.60;9.30;;;281.90;2278.40;;;;;;4847623;29;20142;-78
2022/04/18 11:24:48;;;;;;;16.15;12.38;;;281.90;2278.40;;;;;;4847838;29;20030;-78
2022/04/18 11:27:16;;;;;;;22.60;17.25;;;281.80;2278.40;;;;;;4864458;29;20459;-80
2022/04/18 11:30:09;;;;;;;21.65;15.63;;;281.80;2278.40;;;;;;4847420;29;20423;-80
2022/04/18 11:32:37;;;;;;;12.75;9.75;;;281.80;2278.40;;;;;;4847608;29;20124;-77
2022/04/18 11:35:07;;;;;;;22.08;15.45;;;281.80;2278.40;;;;;;4864155;29;20033;-77
2022/04/18 11:37:43;;;;;;;16.98;10.95;;;281.90;2278.40;;;;;;4847170;29;20030;-80
2022/04/18 11:40:21;;;;;;;10.98;8.27;;;281.90;2278.40;;;;;;4863860;29;20482;-79
2022/04/18 11:42:46;;;;;;;14.55;8.18;;;281.90;2278.40;;;;;;4846950;29;20371;-78
2022/04/18 11:45:27;;;;;;;39.72;18.73;;;281.90;2278.40;;;;;;4847352;29;20034;-79
2022/04/18 11:47:53;;;;;;;38.38;22.95;;;282.00;2278.40;;;;;;4847050;29;20021;-79
2022/04/18 11:50:22;;;;;;;37.85;20.38;;;282.00;2278.40;;;;;;4846898;29;20053;-77
2022/04/18 11:52:49;;;;;;;23.30;14.13;;;282.00;2278.40;;;;;;4863789;29;20032;-79
2022/04/18 11:55:19;;;;;;;23.48;14.90;;;282.10;2278.40;;;;;;4847206;29;20026;-77
2022/04/18 11:57:49;;;;;;;29.10;19.15;;;282.00;2278.40;;;;;;4846874;29;20123;-82
2022/04/18 12:06:44;;;;;;;24.80;14.65;;;282.10;2278.40;;;;;;4847101;29;20485;-80
2022/04/18 12:08:36;;;;;;;11.63;9.18;;;282.30;2278.40;;;;;;4863666;29;20090;-79
2022/04/18 12:11:01;;;;;;;15.40;11.63;;;282.20;2278.40;;;;;;4846619;29;20510;-79
2022/04/18 12:13:28;;;;;;;18.02;12.70;;;282.20;2278.40;;;;;;4847034;29;20026;-78
2022/04/18 12:15:54;;;;;;;14.40;9.40;;;282.20;2278.40;;;;;;4863931;29;20081;-79
2022/04/18 12:18:20;;;;;;;15.90;10.73;;;282.20;2278.40;;;;;;4846542;29;20112;-79
2022/04/18 12:20:48;;;;;;;19.45;11.35;;;282.20;2278.40;;;;;;4863340;29;20034;-78
2022/04/18 12:23:22;;;;;;;55.22;39.75;;;282.20;2278.40;;;;;;4846353;29;20026;-79
2022/04/18 12:25:58;;;;;;;28.67;21.05;;;282.20;2278.40;;;;;;4863032;29;20028;-77
2022/04/18 12:28:29;;;;;;;21.42;17.20;;;282.10;2278.40;;;;;;4846886;29;20029;-79
2022/04/18 12:30:56;;;;;;;33.72;25.15;;;282.10;2278.40;;;;;;4846550;29;20029;-79
2022/04/18 12:33:24;;;;;;;23.88;20.00;;;282.10;2278.40;;;;;;4846308;29;20028;-78
2022/04/18 12:35:55;;;;;;;39.70;29.88;;;282.20;2278.40;;;;;;4846239;29;20521;-80
2022/04/18 12:38:30;;;;;;;15.02;10.70;;;282.20;2278.40;;;;;;4846597;29;20467;-79
2022/04/18 12:40:58;;;;;;;13.52;10.32;;;282.20;2278.40;;;;;;4845883;29;20054;-79
2022/04/18 12:43:29;;;;;;;15.82;11.88;;;282.20;2278.40;;;;;;4862673;29;20356;-77
2022/04/18 12:46:08;;;;;;;18.70;13.02;;;282.40;2278.40;;;;;;4845921;29;20090;-80
2022/04/18 12:48:36;;;;;;;18.40;12.05;;;282.50;2278.40;;;;;;4862586;29;20407;-80
2022/04/18 12:51:04;;;;;;;16.45;11.13;;;282.50;2252.80;;;;;;4846055;29;20037;-79
2022/04/18 12:53:48;;;;;;;16.70;10.57;;;282.50;2176.00;;;;;;4845851;29;20033;-79
2022/04/18 12:56:20;;;;;;;19.90;10.90;;;307.20;2252.80;;;;;;4846146;29;20029;-79
2022/04/18 12:59:07;;;;;;;17.35;11.25;;;307.20;2176.00;;;;;;4846130;29;20033;-78
2022/04/18 13:01:39;;;;;;;18.70;11.93;;;307.20;2124.80;;;;;;4845350;29;20033;-80
2022/04/18 13:04:28;;;;;;;18.15;11.40;;;307.30;2176.00;;;;;;4846250;29;20412;-79
2022/04/18 13:07:03;;;;;;;17.63;11.13;;;282.50;2124.80;;;;;;4845698;29;20032;-80
2022/04/18 13:09:30;;;;;;;13.93;9.05;;;307.40;2099.20;;;;;;4862855;29;20415;-79
2022/04/18 13:12:05;;;;;;;14.10;9.30;;;307.50;2124.80;;;;;;4846035;29;20029;-80
2022/04/18 13:14:32;;;;;;;10.73;6.82;;;307.50;1996.80;;;;;;4845581;29;20029;-79
2022/04/18 13:17:09;;;;;;;18.23;10.57;;;307.50;2022.40;;;;;;4846759;29;20032;-80
2022/04/18 13:19:36;;;;;;;17.08;11.45;;;307.60;2022.40;;;;;;4862429;29;20034;-80
2022/04/18 13:22:03;;;;;;;14.35;9.57;;;307.70;1996.80;;;;;;4845593;29;20060;-79
2022/04/18 13:24:29;;;;;;;12.90;9.27;;;307.90;2048.00;;;;;;4862211;29;20032;-79
2022/04/18 13:26:55;;;;;;;9.52;7.00;;;308.00;2022.40;;;;;;4845919;29;20025;-78
2022/04/18 13:29:21;;;;;;;10.98;7.72;;;308.10;2073.60;;;;;;4845458;29;20149;-77
2022/04/18 13:31:47;;;;;;;11.27;7.40;;;308.10;1971.20;;;;;;4862013;29;20017;-79
2022/04/18 13:34:13;;;;;;;10.77;8.07;;;332.90;2022.40;;;;;;4844893;29;20101;-78
2022/04/18 13:36:40;;;;;;;118.72;38.30;;;332.90;2022.40;;;;;;4845315;29;20025;-77
2022/04/18 13:39:08;;;;;;;46.60;16.95;;;333.00;2022.40;;;;;;4845624;29;20033;-81
2022/04/18 13:41:34;;;;;;;18.95;7.75;;;333.10;2022.40;;;;;;4844996;29;20054;-79
2022/04/18 13:44:01;;;;;;;49.13;19.80;;;333.00;1894.40;;;;;;4845475;29;20519;-79
2022/04/18 13:46:28;;;;;;;25.35;13.63;;;333.10;1945.60;;;;;;4845801;29;20052;-80
2022/04/18 13:48:55;;;;;;;24.58;15.18;;;333.20;2022.40;;;;;;4845471;29;20025;-78
2022/04/18 13:51:26;;;;;;;16.08;11.32;;;333.30;2022.40;;;;;;4847317;29;20085;-77
2022/04/18 13:53:57;;;;;;;21.48;12.23;;;333.30;1971.20;;;;;;4869425;29;20018;-78
2022/04/18 13:56:28;;;;;;;16.25;11.52;;;333.30;2022.40;;;;;;4846567;29;20126;-78
2022/04/18 13:58:54;;;;;;;20.35;12.70;;;333.20;1971.20;;;;;;4861832;29;20029;-80
2022/04/18 14:01:20;;;;;;;25.05;17.17;;;333.10;1920.00;;;;;;4845319;29;20029;-80